createdAt,value
2022-08-05T00:01:36.112Z,100359.84
2022-08-05T00:04:15.555Z,100298.84
2022-08-05T00:06:43.063Z,100285.91
2022-08-05T00:09:12.900Z,100266.13
2022-08-05T00:11:48.534Z,100246.09
2022-08-05T00:14:17.401Z,100229.31
2022-08-05T00:16:52.448Z,100213.84
2022-08-05T00:19:24.742Z,100240.41
2022-08-05T00:21:52.151Z,100283.94
2022-08-05T00:24:24.757Z,100356.69
2022-08-05T00:26:57.217Z,100396.31
2022-08-05T00:29:25.980Z,100417.66
2022-08-05T00:32:13.108Z,100426.63
2022-08-05T00:35:03.547Z,100464.50
2022-08-05T00:37:35.756Z,100472.56
2022-08-05T00:40:17.908Z,100458.38
2022-08-05T00:42:54.952Z,100453.88
2022-08-05T00:45:39.074Z,100422.34
2022-08-05T00:48:09.262Z,100398.06
2022-08-05T00:50:36.550Z,100395.28
2022-08-05T00:53:03.509Z,100382.06
2022-08-05T00:55:42.787Z,100385.97
2022-08-05T00:58:16.761Z,100397.72
2022-08-05T01:00:47.296Z,100388.88
2022-08-05T01:03:22.580Z,100402.53
2022-08-05T01:05:51.221Z,100411.56
2022-08-05T01:08:39.141Z,100423.28
2022-08-05T01:11:22.100Z,100433.09
2022-08-05T01:14:27.905Z,100442.91
2022-08-05T01:17:28.105Z,100427.69
2022-08-05T01:20:13.906Z,100421.44
2022-08-05T01:22:59.491Z,100427.69
2022-08-05T01:25:53.503Z,100399.94
2022-08-05T01:28:28.046Z,100402.81
2022-08-05T01:31:16.405Z,100405.63
2022-08-05T01:33:53.826Z,100397.78
2022-08-05T01:36:28.265Z,100404.16
2022-08-05T01:38:56.529Z,100402.56
2022-08-05T01:41:29.514Z,100391.94
2022-08-05T01:43:57.116Z,100392.78
2022-08-05T01:46:42.487Z,100385.66
2022-08-05T01:49:24.450Z,100381.25
2022-08-05T01:51:58.281Z,100382.19
2022-08-05T01:54:32.010Z,100389.41
2022-08-05T01:58:09.432Z,100393.97
2022-08-05T01:59:49.303Z,100393.09
2022-08-05T02:02:18.665Z,100396.59
2022-08-05T02:04:56.712Z,100401.09
2022-08-05T02:07:23.803Z,100403.78
2022-08-05T02:09:51.246Z,100400.19
2022-08-05T02:12:17.707Z,100409.13
2022-08-05T02:14:59.686Z,100412.75
2022-08-05T02:18:30.855Z,100411.88
2022-08-05T02:20:59.486Z,100421.69
2022-08-05T02:23:33.559Z,100407.28
2022-08-05T02:26:04.987Z,100401.94
2022-08-05T02:28:38.439Z,100403.75
2022-08-05T02:31:21.329Z,100405.56
2022-08-05T02:33:57.245Z,100418.03
2022-08-05T02:36:27.469Z,100420.66
2022-08-05T02:38:58.289Z,100423.34
2022-08-05T02:41:28.361Z,100423.34
2022-08-05T02:44:02.626Z,100427.81
2022-08-05T02:46:35.111Z,100414.34
2022-08-05T02:49:02.603Z,100416.09
2022-08-05T02:52:04.405Z,100423.09
2022-08-05T02:54:35.025Z,100420.16
2022-08-05T02:57:09.781Z,100429.88
2022-08-05T02:59:54.370Z,100434.28
2022-08-05T03:02:36.145Z,100448.66
2022-08-05T03:05:04.441Z,100451.31
2022-08-05T03:08:00.245Z,100463.88
2022-08-05T03:10:24.552Z,100481.78
2022-08-05T03:12:53.661Z,100483.56
2022-08-05T03:15:23.613Z,100493.44
2022-08-05T03:17:55.993Z,100492.47
2022-08-05T03:20:24.459Z,100483.50
2022-08-05T03:22:52.172Z,100462.88
2022-08-05T03:25:32.511Z,100453.75
2022-08-05T03:28:04.571Z,100434.88
2022-08-05T03:30:35.076Z,100422.31
2022-08-05T03:33:04.155Z,100426.78
2022-08-05T03:35:41.189Z,100427.69
2022-08-05T03:38:14.477Z,100438.38
2022-08-05T03:40:47.543Z,100428.47
2022-08-05T03:44:09.638Z,100414.00
2022-08-05T03:46:05.179Z,100387.97
2022-08-05T03:48:35.224Z,100438.13
2022-08-05T03:52:37.633Z,100471.31
2022-08-05T03:55:50.017Z,100463.38
2022-08-05T03:57:16.719Z,100443.59
2022-08-05T03:59:54.827Z,100420.22
2022-08-05T04:02:39.182Z,100428.28
2022-08-05T04:05:13.013Z,100419.25
2022-08-05T04:07:57.247Z,100412.09
2022-08-05T04:10:27.738Z,100410.19
2022-08-05T04:12:59.003Z,100407.50
2022-08-05T04:15:27.730Z,100413.78
2022-08-05T04:18:03.950Z,100421.84
2022-08-05T04:20:33.644Z,100420.94
2022-08-05T04:23:00.191Z,100429.91
2022-08-05T04:25:56.428Z,100413.78
2022-08-05T04:28:14.442Z,100396.72
2022-08-05T04:30:41.617Z,100396.66
2022-08-05T04:33:09.556Z,100382.28
2022-08-05T04:36:11.347Z,100364.34
2022-08-05T04:38:22.719Z,100364.34
2022-08-05T04:41:07.368Z,100353.59
2022-08-05T04:43:36.318Z,100351.81
2022-08-05T04:46:04.563Z,100343.88
2022-08-05T04:48:32.190Z,100321.50
2022-08-05T04:51:02.580Z,100294.63
2022-08-05T04:53:38.559Z,100301.84
2022-08-05T04:56:33.789Z,100309.03
2022-08-05T04:58:56.462Z,100314.59
2022-08-05T05:02:05.654Z,100331.72
2022-08-05T05:04:09.573Z,100344.31
2022-08-05T05:06:44.847Z,100355.00
2022-08-05T05:09:17.328Z,100357.63
2022-08-05T05:11:53.947Z,100354.06
2022-08-05T05:14:28.022Z,100365.81
2022-08-05T05:17:01.580Z,100366.75
2022-08-05T05:19:37.102Z,100351.47
2022-08-05T05:22:24.596Z,100353.13
2022-08-05T05:24:59.800Z,100360.94
2022-08-05T05:27:44.776Z,100354.63
2022-08-05T05:30:29.466Z,100369.63
2022-08-05T05:33:08.815Z,100377.56
2022-08-05T05:35:43.550Z,100382.03
2022-08-05T05:38:13.121Z,100383.88
2022-08-05T05:40:49.579Z,100402.78
2022-08-05T05:43:22.302Z,100416.25
2022-08-05T05:46:05.230Z,100430.63
2022-08-05T05:48:34.606Z,100427.09
2022-08-05T05:51:14.757Z,100429.84
2022-08-05T05:53:54.423Z,100429.06
2022-08-05T05:56:32.765Z,100444.22
2022-08-05T05:59:06.478Z,100429.84
2022-08-05T06:01:38.091Z,100430.63
2022-08-05T06:04:11.810Z,100443.84
2022-08-05T06:06:47.440Z,100458.84
2022-08-05T06:09:18.159Z,100464.81
2022-08-05T06:12:01.899Z,100463.41
2022-08-05T06:14:30.767Z,100468.84
2022-08-05T06:16:57.977Z,100464.53
2022-08-05T06:19:33.888Z,100465.44
2022-08-05T06:22:02.708Z,100465.16
2022-08-05T06:24:30.094Z,100451.38
2022-08-05T06:26:57.791Z,100465.59
2022-08-05T06:29:46.373Z,100472.75
2022-08-05T06:32:17.222Z,100496.22
2022-08-05T06:34:53.606Z,100515.13
2022-08-05T06:37:55.536Z,100528.84
2022-08-05T06:40:09.909Z,100531.94
2022-08-05T06:42:36.989Z,100547.44
2022-08-05T06:45:08.858Z,100550.28
2022-08-05T06:48:47.047Z,100554.06
2022-08-05T06:50:23.596Z,100563.31
2022-08-05T06:53:03.569Z,100552.69
2022-08-05T06:55:37.072Z,100549.09
2022-08-05T06:58:30.182Z,100554.66
2022-08-05T07:00:51.150Z,100537.91
2022-08-05T07:03:18.077Z,100530.16
2022-08-05T07:05:46.394Z,100520.59
2022-08-05T07:08:13.615Z,100499.53
2022-08-05T07:10:52.719Z,100497.88
2022-08-05T07:13:57.063Z,100496.25
2022-08-05T07:18:01.163Z,100499.91
2022-08-05T07:22:16.638Z,100483.91
2022-08-05T07:24:44.077Z,100490.28
2022-08-05T07:27:19.372Z,100484.97
2022-08-05T07:30:27.255Z,100479.47
2022-08-05T07:32:41.174Z,100467.63
2022-08-05T07:36:01.876Z,100460.34
2022-08-05T07:37:59.100Z,100462.09
2022-08-05T07:40:32.940Z,100458.47
2022-08-05T07:42:59.913Z,100449.28
2022-08-05T07:45:56.675Z,100450.63
2022-08-05T07:49:02.363Z,100428.53
2022-08-05T07:51:08.664Z,100433.16
2022-08-05T07:53:51.764Z,100432.34
2022-08-05T07:57:01.155Z,100418.97
2022-08-05T07:59:05.317Z,100402.28
2022-08-05T08:01:35.448Z,100394.75
2022-08-05T08:04:08.460Z,100395.16
2022-08-05T08:06:34.986Z,100397.66
2022-08-05T08:09:02.216Z,100396.44
2022-08-05T08:11:51.300Z,100411.56
2022-08-05T08:14:18.959Z,100402.72
2022-08-05T08:16:50.729Z,100402.47
2022-08-05T08:20:10.017Z,100410.94
2022-08-05T08:22:05.302Z,100415.00
2022-08-05T08:24:51.525Z,100428.81
2022-08-05T08:27:19.012Z,100430.13
2022-08-05T08:30:05.547Z,100442.00
2022-08-05T08:32:34.796Z,100443.16
2022-08-05T08:35:13.568Z,100447.91
2022-08-05T08:37:40.248Z,100445.31
2022-08-05T08:40:12.391Z,100454.63
2022-08-05T08:42:46.758Z,100453.44
2022-08-05T08:45:26.685Z,100454.47
2022-08-05T08:48:07.495Z,100467.59
2022-08-05T08:51:03.133Z,100472.94
2022-08-05T08:53:35.792Z,100468.03
2022-08-05T08:56:06.072Z,100451.78
2022-08-05T08:58:43.437Z,100462.13
2022-08-05T09:01:15.923Z,100460.06
2022-08-05T09:03:55.437Z,100458.03
2022-08-05T09:06:29.572Z,100460.88
2022-08-05T09:09:00.373Z,100469.19
2022-08-05T09:11:51.051Z,100466.53
2022-08-05T09:14:56.936Z,100492.31
2022-08-05T09:17:03.850Z,100511.47
2022-08-05T09:19:36.693Z,100520.72
2022-08-05T09:22:30.749Z,100515.38
2022-08-05T09:25:23.678Z,100514.97
2022-08-05T09:28:05.018Z,100521.19
2022-08-05T09:30:34.815Z,100510.13
2022-08-05T09:33:02.547Z,100503.97
2022-08-05T09:35:31.437Z,100496.69
2022-08-05T09:38:17.119Z,100497.00
2022-08-05T09:40:52.721Z,100508.41
2022-08-05T09:43:27.904Z,100505.16
2022-08-05T09:46:33.165Z,100514.41
2022-08-05T09:49:19.445Z,100509.34
2022-08-05T09:51:49.694Z,100514.22
2022-08-05T09:54:21.157Z,100509.00
2022-08-05T09:56:51.446Z,100515.44
2022-08-05T09:59:23.992Z,100521.97
2022-08-05T10:01:58.388Z,100527.50
2022-08-05T10:04:35.843Z,100541.28
2022-08-05T10:07:19.458Z,100544.25
2022-08-05T10:10:14.139Z,100545.22
2022-08-05T10:12:50.409Z,100542.47
2022-08-05T10:15:34.344Z,100544.97
2022-08-05T10:18:19.900Z,100545.81
2022-08-05T10:20:48.517Z,100552.25
2022-08-05T10:23:55.502Z,100549.63
2022-08-05T10:26:24.316Z,100548.56
2022-08-05T10:28:59.637Z,100560.28
2022-08-05T10:32:52.647Z,100553.22
2022-08-05T10:34:13.612Z,100550.28
2022-08-05T10:36:41.802Z,100548.44
2022-08-05T10:39:24.403Z,100554.50
2022-08-05T10:42:22.902Z,100558.81
2022-08-05T10:45:01.772Z,100555.25
2022-08-05T10:47:33.209Z,100565.75
2022-08-05T10:50:20.843Z,100555.78
2022-08-05T10:52:59.842Z,100561.06
2022-08-05T10:55:27.480Z,100566.53
2022-08-05T10:58:11.653Z,100572.25
2022-08-05T11:00:47.697Z,100565.22
2022-08-05T11:03:25.402Z,100568.75
2022-08-05T11:06:15.362Z,100566.97
2022-08-05T11:09:18.632Z,100550.50
2022-08-05T11:11:53.982Z,100555.06
2022-08-05T11:14:57.513Z,100548.34
2022-08-05T11:17:59.346Z,100561.00
2022-08-05T11:20:43.986Z,100560.34
2022-08-05T11:24:03.207Z,100563.66
2022-08-05T11:26:29.085Z,100572.81
2022-08-05T11:29:12.789Z,100571.38
2022-08-05T11:31:58.871Z,100567.59
2022-08-05T11:34:50.748Z,100574.09
2022-08-05T11:38:29.586Z,100587.81
2022-08-05T11:41:01.720Z,100602.69
2022-08-05T11:44:05.215Z,100598.72
2022-08-05T11:47:11.840Z,100607.38
2022-08-05T11:49:43.258Z,100601.63
2022-08-05T11:52:26.322Z,100603.69
2022-08-05T11:54:58.125Z,100609.34
2022-08-05T11:57:30.518Z,100615.13
2022-08-05T11:59:58.048Z,100621.94
2022-08-05T12:02:33.156Z,100631.63
2022-08-05T12:05:07.805Z,100628.75
2022-08-05T12:08:03.360Z,100636.59
2022-08-05T12:10:38.660Z,100637.28
2022-08-05T12:13:15.578Z,100633.31
2022-08-05T12:15:45.206Z,100648.75
2022-08-05T12:18:20.591Z,100661.44
2022-08-05T12:20:50.853Z,100663.28
2022-08-05T12:23:17.341Z,100662.31
2022-08-05T12:25:56.785Z,100679.94
2022-08-05T12:28:53.000Z,100665.13
2022-08-05T12:31:23.357Z,100678.13
2022-08-05T12:34:04.143Z,100676.94
2022-08-05T12:36:30.978Z,100683.94
2022-08-05T12:38:58.942Z,100700.75
2022-08-05T12:41:34.526Z,100700.81
2022-08-05T12:44:11.657Z,100701.91
2022-08-05T12:46:45.637Z,100707.50
2022-08-05T12:49:15.007Z,100730.00
2022-08-05T12:52:14.356Z,100731.06
2022-08-05T12:54:32.844Z,100742.84
2022-08-05T12:57:03.822Z,100758.13
2022-08-05T13:01:57.709Z,100760.81
2022-08-05T13:02:36.040Z,100759.94
2022-08-05T13:05:06.315Z,100764.44
2022-08-05T13:07:57.696Z,100759.78
2022-08-05T13:10:20.485Z,100754.19
2022-08-05T13:12:51.032Z,100761.13
2022-08-05T13:15:41.736Z,100769.78
2022-08-05T13:18:21.251Z,100759.63
2022-08-05T13:20:50.659Z,100769.22
2022-08-05T13:23:18.048Z,100774.47
2022-08-05T13:25:52.173Z,100778.75
2022-08-05T13:28:25.748Z,100784.03
2022-08-05T13:30:53.272Z,100788.63
2022-08-05T13:34:21.356Z,100792.22
2022-08-05T13:36:09.084Z,100781.63
2022-08-05T13:38:42.064Z,100780.66
2022-08-05T13:41:11.074Z,100777.75
2022-08-05T13:43:44.047Z,100769.75
2022-08-05T13:46:13.639Z,100764.38
2022-08-05T13:48:57.963Z,100770.34
2022-08-05T13:51:36.656Z,100761.69
2022-08-05T13:54:11.681Z,100761.28
2022-08-05T13:56:45.028Z,100768.00
2022-08-05T13:59:21.041Z,100766.59
2022-08-05T14:01:56.515Z,100768.94
2022-08-05T14:04:51.058Z,100768.88
2022-08-05T14:07:56.493Z,100786.69
2022-08-05T14:10:19.074Z,100789.06
2022-08-05T14:12:56.000Z,100789.78
2022-08-05T14:16:07.446Z,100790.66
2022-08-05T14:18:17.843Z,100790.84
2022-08-05T14:20:48.924Z,100796.03
2022-08-05T14:23:25.005Z,100803.91
2022-08-05T14:25:58.533Z,100811.03
2022-08-05T14:28:28.021Z,100804.97
2022-08-05T14:30:56.504Z,100805.09
2022-08-05T14:33:23.983Z,100808.53
2022-08-05T14:35:52.206Z,100818.56
2022-08-05T14:38:33.275Z,100817.81
2022-08-05T14:41:07.487Z,100818.88
2022-08-05T14:43:57.732Z,100828.97
2022-08-05T14:46:28.683Z,100839.22
2022-08-05T14:49:06.325Z,100840.41
2022-08-05T14:51:39.014Z,100842.13
2022-08-05T14:54:28.425Z,100843.16
2022-08-05T14:56:57.891Z,100847.59
2022-08-05T14:59:24.940Z,100837.56
2022-08-05T15:01:56.350Z,100852.69
2022-08-05T15:04:23.585Z,100842.84
2022-08-05T15:06:54.161Z,100849.22
2022-08-05T15:09:51.431Z,100849.13
2022-08-05T15:12:09.489Z,100857.25
2022-08-05T15:14:49.506Z,100851.91
2022-08-05T15:17:46.437Z,100864.63
2022-08-05T15:20:18.483Z,100862.03
2022-08-05T15:22:46.274Z,100859.41
2022-08-05T15:25:23.563Z,100871.25
2022-08-05T15:28:07.522Z,100874.19
2022-08-05T15:30:36.786Z,100869.69
2022-08-05T15:33:04.905Z,100883.06
2022-08-05T15:35:36.079Z,100880.22
2022-08-05T15:38:34.306Z,100878.91
2022-08-05T15:41:21.926Z,100884.06
2022-08-05T15:43:45.717Z,100895.88
2022-08-05T15:46:13.482Z,100905.91
2022-08-05T15:48:41.007Z,100907.81
2022-08-05T15:51:22.589Z,100897.75
2022-08-05T15:54:09.126Z,100894.06
2022-08-05T15:56:41.662Z,100894.22
2022-08-05T15:59:08.149Z,100890.25
2022-08-05T16:01:39.493Z,100896.31
2022-08-05T16:04:08.688Z,100885.91
2022-08-05T16:06:37.466Z,100887.06
2022-08-05T16:09:04.095Z,100885.91
2022-08-05T16:11:39.993Z,100894.75
2022-08-05T16:14:07.063Z,100888.88
2022-08-05T16:16:36.390Z,100898.44
2022-08-05T16:19:03.788Z,100892.19
2022-08-05T16:21:58.636Z,100895.78
2022-08-05T16:24:39.569Z,100896.63
2022-08-05T16:27:04.725Z,100904.19
2022-08-05T16:29:37.603Z,100902.13
2022-08-05T16:32:06.555Z,100898.88
2022-08-05T16:34:36.706Z,100896.91
2022-08-05T16:38:16.768Z,100891.81
2022-08-05T16:40:04.636Z,100896.13
2022-08-05T16:42:34.549Z,100909.16
2022-08-05T16:45:01.727Z,100900.16
2022-08-05T16:47:36.360Z,100899.63
2022-08-05T16:50:15.014Z,100903.50
2022-08-05T16:52:45.270Z,100906.38
2022-08-05T16:55:12.856Z,100921.63
2022-08-05T16:57:50.461Z,100909.28
2022-08-05T17:00:34.649Z,100903.44
2022-08-05T17:03:09.232Z,100907.88
2022-08-05T17:05:50.054Z,100911.16
2022-08-05T17:08:33.420Z,100905.47
2022-08-05T17:11:04.163Z,100914.59
2022-08-05T17:13:37.841Z,100919.69
2022-08-05T17:16:27.946Z,100914.56
2022-08-05T17:18:55.470Z,100914.81
2022-08-05T17:21:23.731Z,100925.22
2022-08-05T17:24:04.568Z,100922.72
2022-08-05T17:26:36.109Z,100924.06
2022-08-05T17:29:09.858Z,100928.06
2022-08-05T17:31:56.705Z,100928.56
2022-08-05T17:34:29.910Z,100935.13
2022-08-05T17:37:02.375Z,100934.16
2022-08-05T17:39:34.331Z,100931.13
2022-08-05T17:42:19.706Z,100935.34
2022-08-05T17:44:50.537Z,100934.22
2022-08-05T17:47:23.113Z,100931.19
2022-08-05T17:49:59.780Z,100921.94
2022-08-05T17:52:29.830Z,100930.50
2022-08-05T17:54:56.444Z,100937.28
2022-08-05T17:57:23.152Z,100922.03
2022-08-05T18:00:04.718Z,100939.28
2022-08-05T18:02:34.041Z,100939.28
2022-08-05T18:05:06.269Z,100941.78
2022-08-05T18:07:41.203Z,100946.16
2022-08-05T18:10:13.978Z,100956.81
2022-08-05T18:12:46.923Z,100960.88
2022-08-05T18:15:13.435Z,100961.31
2022-08-05T18:17:58.891Z,100960.88
2022-08-05T18:20:29.161Z,100958.66
2022-08-05T18:22:58.719Z,100964.38
2022-08-05T18:25:35.357Z,100963.53
2022-08-05T18:28:05.135Z,100968.50
2022-08-05T18:30:33.124Z,100969.75
2022-08-05T18:33:00.979Z,100966.16
2022-08-05T18:36:01.197Z,100974.34
2022-08-05T18:38:16.307Z,100975.06
2022-08-05T18:41:57.397Z,100979.09
2022-08-05T18:43:37.901Z,100978.75
2022-08-05T18:46:06.951Z,100989.13
2022-08-05T18:48:36.695Z,100992.34
2022-08-05T18:52:06.453Z,100996.38
2022-08-05T18:54:14.333Z,101004.03
2022-08-05T18:56:40.815Z,101010.63
2022-08-05T18:59:43.807Z,101012.78
2022-08-05T19:01:58.312Z,101016.84
2022-08-05T19:04:25.788Z,101030.69
2022-08-05T19:06:53.601Z,101034.59
2022-08-05T19:09:21.186Z,101047.44
2022-08-05T19:12:00.291Z,101036.94
2022-08-05T19:14:37.903Z,101040.78
2022-08-05T19:17:16.400Z,101048.28
2022-08-05T19:19:46.519Z,101054.75
2022-08-05T19:22:17.060Z,101062.13
2022-08-05T19:25:00.717Z,101066.75
2022-08-05T19:27:30.569Z,101071.41
2022-08-05T19:29:58.384Z,101084.94
2022-08-05T19:32:26.144Z,101086.88
2022-08-05T19:34:54.323Z,101092.34
2022-08-05T19:37:29.997Z,101090.72
2022-08-05T19:40:10.822Z,101106.06
2022-08-05T19:42:38.899Z,101108.84
2022-08-05T19:45:07.154Z,101121.38
2022-08-05T19:47:37.165Z,101120.56
2022-08-05T19:50:07.541Z,101128.69
2022-08-05T19:52:37.100Z,101127.91
2022-08-05T19:55:08.748Z,101126.19
2022-08-05T19:58:19.669Z,101137.84
2022-08-05T20:00:37.561Z,101145.91
2022-08-05T20:03:08.670Z,101145.06
2022-08-05T20:05:49.920Z,101153.13
2022-08-05T20:08:17.169Z,101152.28
2022-08-05T20:10:43.651Z,101155.03
2022-08-05T20:13:10.923Z,101163.97
2022-08-05T20:15:52.277Z,101160.44
2022-08-05T20:18:33.173Z,101166.72
2022-08-05T20:21:04.517Z,101167.63
2022-08-05T20:23:40.765Z,101170.34
2022-08-05T20:26:24.624Z,101170.34
2022-08-05T20:28:56.129Z,101180.22
2022-08-05T20:31:36.950Z,101179.31
2022-08-05T20:34:10.131Z,101192.72
2022-08-05T20:36:36.801Z,101195.41
2022-08-05T20:39:05.838Z,101204.34
2022-08-05T20:41:43.382Z,101200.81
2022-08-05T20:44:17.843Z,101205.25
2022-08-05T20:46:46.654Z,101222.19
2022-08-05T20:49:13.941Z,101219.50
2022-08-05T20:51:40.514Z,101216.81
2022-08-05T20:54:07.315Z,101211.50
2022-08-05T20:56:42.520Z,101223.06
2022-08-05T20:59:13.997Z,101227.50
2022-08-05T21:01:46.673Z,101219.50
2022-08-05T21:04:13.881Z,101220.38
2022-08-05T21:06:45.646Z,101218.59
2022-08-05T21:09:14.610Z,101224.81
2022-08-05T21:12:09.120Z,101237.28
2022-08-05T21:14:29.345Z,101227.47
2022-08-05T21:17:01.721Z,101236.34
2022-08-05T21:19:29.795Z,101233.69
2022-08-05T21:22:14.476Z,101242.59
2022-08-05T21:24:41.030Z,101237.22
2022-08-05T21:27:09.315Z,101240.78
2022-08-05T21:29:40.587Z,101245.19
2022-08-05T21:32:07.652Z,101246.97
2022-08-05T21:34:35.579Z,101250.50
2022-08-05T21:37:02.535Z,101252.31
2022-08-05T21:39:29.257Z,101255.84
2022-08-05T21:42:01.412Z,101258.47
2022-08-05T21:44:31.970Z,101262.03
2022-08-05T21:46:59.275Z,101270.91
2022-08-05T21:49:48.023Z,101269.97
2022-08-05T21:52:21.760Z,101269.94
2022-08-05T21:54:51.295Z,101269.03
2022-08-05T21:57:31.374Z,101270.78
2022-08-05T22:00:10.705Z,101276.06
2022-08-05T22:02:41.762Z,101284.06
2022-08-05T22:05:10.605Z,101279.59
2022-08-05T22:07:40.428Z,101284.00
2022-08-05T22:10:26.709Z,101281.34
2022-08-05T22:12:59.009Z,101278.63
2022-08-05T22:16:01.911Z,101281.28
2022-08-05T22:18:14.543Z,101290.13
2022-08-05T22:20:41.868Z,101293.66
2022-08-05T22:24:02.382Z,101290.97
2022-08-05T22:26:34.815Z,101301.56
2022-08-05T22:29:02.205Z,101308.66
2022-08-05T22:31:29.939Z,101306.81
2022-08-05T22:34:01.018Z,101302.34
2022-08-05T22:36:28.202Z,101303.19
2022-08-05T22:38:55.918Z,101307.59
2022-08-05T22:42:05.355Z,101303.09
2022-08-05T22:44:11.825Z,101308.41
2022-08-05T22:46:40.688Z,101314.59
2022-08-05T22:50:17.653Z,101312.81
2022-08-05T22:52:04.910Z,101307.41
2022-08-05T22:54:33.524Z,101310.06
2022-08-05T22:57:00.081Z,101313.56
2022-08-05T22:59:42.638Z,101310.84
2022-08-05T23:02:16.564Z,101306.38
2022-08-05T23:04:51.567Z,101319.69
2022-08-05T23:07:21.757Z,101317.84
2022-08-05T23:09:58.334Z,101320.47
2022-08-05T23:12:32.482Z,101324.88
2022-08-05T23:15:03.437Z,101329.22
2022-08-05T23:17:34.851Z,101329.19
2022-08-05T23:20:10.448Z,101327.38
2022-08-05T23:22:43.446Z,101335.31
2022-08-05T23:25:17.107Z,101332.63
2022-08-05T23:28:00.273Z,101339.66
2022-08-05T23:30:29.129Z,101336.06
2022-08-05T23:32:57.856Z,101335.13
2022-08-05T23:35:28.653Z,101334.19
2022-08-05T23:38:01.251Z,101343.84
2022-08-05T23:40:27.877Z,101344.72
2022-08-05T23:42:54.504Z,101347.31
2022-08-05T23:45:21.164Z,101349.91
2022-08-05T23:47:53.703Z,101349.91
2022-08-05T23:50:26.022Z,101352.47
2022-08-05T23:52:55.339Z,101350.63
2022-08-05T23:55:22.434Z,101353.22
2022-08-05T23:57:52.861Z,101367.34
